createdAt,value
2023-01-18T00:01:12.406Z,0.75
2023-01-18T00:03:40.177Z,0.10
2023-01-18T00:06:09.015Z,1.60
2023-01-18T00:08:38.705Z,0.20
2023-01-18T00:11:12.020Z,0.17
2023-01-18T00:13:39.443Z,0.38
2023-01-18T00:16:10.427Z,0.57
2023-01-18T00:18:37.563Z,0.17
2023-01-18T00:21:10.266Z,0.85
2023-01-18T00:23:38.117Z,0.20
2023-01-18T00:26:08.218Z,0.30
2023-01-18T00:28:35.598Z,0.10
2023-01-18T00:31:02.491Z,0.10
2023-01-18T00:33:29.368Z,0.38
2023-01-18T00:36:01.552Z,0.40
2023-01-18T00:38:29.704Z,0.20
2023-01-18T00:40:57.183Z,0.10
2023-01-18T00:43:39.991Z,0.50
2023-01-18T00:46:09.626Z,0.77
2023-01-18T00:48:39.109Z,0.73
2023-01-18T00:51:07.268Z,1.08
2023-01-18T00:53:34.124Z,0.47
2023-01-18T00:56:01.509Z,0.85
2023-01-18T00:58:29.213Z,0.90
2023-01-18T01:00:56.318Z,0.20
2023-01-18T01:03:23.280Z,0.50
2023-01-18T01:06:08.983Z,0.32
2023-01-18T01:08:36.303Z,1.27
2023-01-18T01:11:12.411Z,1.08
2023-01-18T01:13:58.150Z,0.75
2023-01-18T01:16:43.662Z,2.30
2023-01-18T01:19:28.934Z,0.30
2023-01-18T01:22:14.650Z,0.57
2023-01-18T01:25:00.033Z,1.05
2023-01-18T01:27:26.906Z,1.27
2023-01-18T01:29:54.614Z,0.50
2023-01-18T01:32:21.415Z,0.43
2023-01-18T01:34:48.594Z,0.90
2023-01-18T01:37:15.417Z,1.35
2023-01-18T01:39:42.265Z,1.15
2023-01-18T01:42:12.271Z,0.75
2023-01-18T01:44:50.374Z,0.75
2023-01-18T01:47:45.098Z,0.28
2023-01-18T01:50:19.176Z,1.38
2023-01-18T01:52:48.157Z,1.55
2023-01-18T01:55:27.255Z,1.90
2023-01-18T01:57:57.557Z,1.58
2023-01-18T02:00:24.777Z,0.82
2023-01-18T02:03:01.279Z,1.73
2023-01-18T02:05:30.947Z,1.33
2023-01-18T02:08:02.430Z,2.92
2023-01-18T02:10:30.325Z,0.98
2023-01-18T02:12:59.259Z,0.65
2023-01-18T02:15:36.621Z,1.10
2023-01-18T02:18:11.470Z,1.55
2023-01-18T02:20:47.428Z,1.08
2023-01-18T02:23:35.183Z,0.98
2023-01-18T02:26:26.571Z,1.05
2023-01-18T02:31:44.875Z,1.73
2023-01-18T02:34:35.850Z,1.20
2023-01-18T02:37:14.160Z,2.38
2023-01-18T02:39:40.957Z,1.08
2023-01-18T02:42:41.192Z,1.42
2023-01-18T02:45:35.958Z,1.95
2023-01-18T02:48:03.600Z,0.75
2023-01-18T02:50:30.547Z,1.15
2023-01-18T02:52:57.634Z,0.77
2023-01-18T02:55:39.526Z,1.23
2023-01-18T02:58:29.987Z,1.38
2023-01-18T03:01:22.655Z,1.65
2023-01-18T03:03:51.532Z,1.13
2023-01-18T03:06:21.750Z,1.30
2023-01-18T03:08:51.822Z,1.50
2023-01-18T03:11:30.715Z,2.92
2023-01-18T03:14:37.888Z,1.70
2023-01-18T03:17:28.784Z,1.67
2023-01-18T03:20:09.304Z,2.90
2023-01-18T03:23:01.987Z,1.93
2023-01-18T03:25:32.719Z,1.38
2023-01-18T03:28:23.958Z,2.05
2023-01-18T03:31:13.246Z,2.50
2023-01-18T03:33:46.020Z,2.05
2023-01-18T03:36:23.809Z,2.15
2023-01-18T03:39:00.426Z,2.05
2023-01-18T03:41:32.050Z,1.42
2023-01-18T03:44:04.984Z,2.30
2023-01-18T03:46:33.396Z,1.00
2023-01-18T03:49:00.729Z,0.95
2023-01-18T03:51:59.652Z,1.10
2023-01-18T03:55:00.474Z,1.33
2023-01-18T03:57:47.879Z,1.73
2023-01-18T04:00:15.425Z,0.98
2023-01-18T04:02:47.235Z,2.42
2023-01-18T04:05:14.930Z,0.65
2023-01-18T04:07:41.823Z,1.60
2023-01-18T04:10:09.492Z,2.65
2023-01-18T04:12:36.643Z,3.45
2023-01-18T04:15:04.639Z,0.73
2023-01-18T04:17:31.694Z,1.58
2023-01-18T04:19:58.497Z,1.20
2023-01-18T04:22:25.401Z,1.08
2023-01-18T04:24:52.251Z,1.05
2023-01-18T04:27:19.108Z,1.65
2023-01-18T04:29:45.963Z,1.67
2023-01-18T04:32:12.774Z,2.40
2023-01-18T04:34:39.624Z,0.43
2023-01-18T04:37:06.449Z,0.88
2023-01-18T04:39:33.296Z,1.08
2023-01-18T04:42:00.124Z,0.50
2023-01-18T04:44:26.934Z,0.47
2023-01-18T04:46:53.777Z,1.20
2023-01-18T04:49:20.682Z,1.75
2023-01-18T04:51:47.959Z,0.80
2023-01-18T04:54:17.040Z,0.80
2023-01-18T04:56:43.866Z,1.85
2023-01-18T04:59:15.937Z,0.30
2023-01-18T05:01:43.344Z,0.93
2023-01-18T05:04:10.313Z,0.65
2023-01-18T05:06:37.156Z,0.90
2023-01-18T05:09:04.370Z,1.90
2023-01-18T05:11:31.183Z,1.88
2023-01-18T05:13:58.034Z,0.88
2023-01-18T05:16:25.213Z,1.50
2023-01-18T05:18:52.156Z,1.88
2023-01-18T05:21:19.020Z,0.95
2023-01-18T05:23:45.867Z,0.20
2023-01-18T05:26:20.054Z,0.80
2023-01-18T05:28:47.361Z,1.75
2023-01-18T05:31:15.629Z,3.13
2023-01-18T05:33:42.773Z,1.13
2023-01-18T05:36:09.701Z,3.60
2023-01-18T05:38:36.583Z,5.68
2023-01-18T05:41:03.607Z,9.60
2023-01-18T05:43:31.489Z,13.55
2023-01-18T05:45:59.146Z,14.13
2023-01-18T05:48:26.577Z,7.57
2023-01-18T05:50:53.414Z,10.32
2023-01-18T05:53:22.071Z,13.20
2023-01-18T05:56:00.046Z,22.63
2023-01-18T05:58:28.174Z,10.13
2023-01-18T06:00:55.658Z,9.65
2023-01-18T06:03:23.772Z,10.27
2023-01-18T06:05:51.724Z,8.45
2023-01-18T06:08:19.863Z,7.95
2023-01-18T06:10:57.396Z,22.73
2023-01-18T06:13:28.193Z,11.52
2023-01-18T06:15:55.692Z,17.23
2023-01-18T06:18:23.475Z,6.50
2023-01-18T06:20:50.388Z,10.73
2023-01-18T06:23:17.183Z,9.50
2023-01-18T06:25:44.148Z,9.70
2023-01-18T06:28:11.005Z,6.50
2023-01-18T06:30:38.827Z,17.20
2023-01-18T06:33:07.202Z,6.93
2023-01-18T06:35:34.963Z,10.98
2023-01-18T06:38:05.438Z,10.10
2023-01-18T06:40:32.263Z,25.48
2023-01-18T06:42:59.313Z,18.50
2023-01-18T06:45:26.596Z,9.70
2023-01-18T06:47:53.558Z,8.68
2023-01-18T06:50:20.751Z,16.42
2023-01-18T06:52:47.650Z,10.45
2023-01-18T06:55:15.493Z,5.13
2023-01-18T06:57:42.423Z,7.68
2023-01-18T07:00:10.862Z,8.23
2023-01-18T07:02:38.208Z,6.85
2023-01-18T07:05:05.694Z,17.85
2023-01-18T07:07:33.083Z,10.32
2023-01-18T07:09:59.925Z,7.60
2023-01-18T07:12:26.923Z,9.93
2023-01-18T07:14:53.776Z,3.67
2023-01-18T07:17:20.579Z,39.05
2023-01-18T07:19:47.393Z,7.88
2023-01-18T07:22:14.834Z,25.23
2023-01-18T07:24:41.703Z,11.00
2023-01-18T07:27:08.585Z,11.98
2023-01-18T07:29:35.560Z,7.65
2023-01-18T07:32:02.855Z,15.80
2023-01-18T07:34:29.737Z,20.63
2023-01-18T07:36:56.657Z,18.13
2023-01-18T07:39:23.623Z,9.52
2023-01-18T07:41:50.510Z,10.40
2023-01-18T07:44:17.331Z,6.60
2023-01-18T07:46:44.328Z,6.18
2023-01-18T07:49:11.297Z,7.25
2023-01-18T07:51:38.280Z,5.22
2023-01-18T07:54:05.633Z,6.50
2023-01-18T07:56:32.513Z,6.05
2023-01-18T07:58:59.391Z,3.88
2023-01-18T08:01:27.281Z,3.75
2023-01-18T08:03:55.059Z,2.50
2023-01-18T08:06:26.494Z,5.57
2023-01-18T08:08:56.286Z,1.35
2023-01-18T08:11:23.828Z,3.45
2023-01-18T08:13:52.822Z,2.58
2023-01-18T08:16:20.403Z,3.13
2023-01-18T08:18:50.109Z,8.35
2023-01-18T08:21:17.043Z,0.73
2023-01-18T08:23:44.071Z,0.50
2023-01-18T08:26:13.657Z,1.75
2023-01-18T08:28:41.827Z,2.00
2023-01-18T08:31:16.666Z,2.85
2023-01-18T08:33:46.595Z,2.17
2023-01-18T08:36:17.070Z,0.95
2023-01-18T08:38:47.520Z,2.65
2023-01-18T08:41:14.414Z,2.50
2023-01-18T08:43:41.497Z,1.40
2023-01-18T08:46:08.933Z,1.17
2023-01-18T08:48:35.951Z,1.95
2023-01-18T08:51:03.807Z,0.30
2023-01-18T08:53:31.988Z,1.02
2023-01-18T08:55:59.006Z,0.50
2023-01-18T08:58:26.051Z,0.77
2023-01-18T09:00:54.345Z,1.20
2023-01-18T09:03:23.227Z,0.95
2023-01-18T09:05:51.490Z,0.57
2023-01-18T09:08:19.899Z,0.38
2023-01-18T09:10:47.672Z,1.48
2023-01-18T09:13:14.592Z,1.45
2023-01-18T09:15:41.783Z,0.38
2023-01-18T09:18:08.875Z,1.75
2023-01-18T09:20:36.628Z,0.60
2023-01-18T09:23:08.543Z,1.50
2023-01-18T09:25:39.468Z,0.60
2023-01-18T09:28:06.519Z,0.50
2023-01-18T09:30:34.986Z,0.47
2023-01-18T09:33:02.349Z,0.63
2023-01-18T09:35:29.668Z,1.13
2023-01-18T09:37:58.241Z,0.93
2023-01-18T09:40:40.609Z,0.65
2023-01-18T09:43:21.598Z,0.50
2023-01-18T09:45:48.645Z,1.65
2023-01-18T09:48:40.161Z,0.70
2023-01-18T09:51:20.850Z,1.27
2023-01-18T09:54:07.157Z,1.02
2023-01-18T09:56:49.409Z,1.25
2023-01-18T09:59:36.779Z,0.50
2023-01-18T10:02:17.939Z,0.35
2023-01-18T10:04:51.525Z,0.70
2023-01-18T10:07:20.693Z,0.82
2023-01-18T10:09:57.669Z,0.77
2023-01-18T10:12:34.158Z,0.30
2023-01-18T10:15:24.171Z,0.60
2023-01-18T10:17:57.009Z,0.52
2023-01-18T10:20:36.221Z,0.50
2023-01-18T10:23:09.980Z,0.73
2023-01-18T10:25:39.887Z,0.73
2023-01-18T10:28:40.112Z,0.30
2023-01-18T10:31:41.227Z,0.65
2023-01-18T10:34:33.483Z,3.22
2023-01-18T10:37:15.025Z,0.32
2023-01-18T10:39:51.857Z,0.30
2023-01-18T10:42:27.607Z,0.40
2023-01-18T10:44:54.859Z,0.20
2023-01-18T10:47:24.323Z,0.25
2023-01-18T10:49:59.304Z,0.30
2023-01-18T10:52:31.922Z,0.90
2023-01-18T10:55:07.797Z,0.80
2023-01-18T10:57:44.420Z,0.17
2023-01-18T11:00:24.603Z,0.20
2023-01-18T11:02:53.790Z,0.52
2023-01-18T11:05:32.456Z,0.25
2023-01-18T11:08:21.176Z,0.32
2023-01-18T11:11:03.018Z,0.65
2023-01-18T11:13:50.006Z,0.20
2023-01-18T11:16:18.944Z,0.45
2023-01-18T11:18:58.950Z,0.10
2023-01-18T11:21:32.373Z,0.10
2023-01-18T11:24:08.083Z,2.38
2023-01-18T11:26:35.722Z,0.10
2023-01-18T11:29:06.125Z,1.38
2023-01-18T11:31:47.997Z,0.33
2023-01-18T11:34:35.096Z,2.63
2023-01-18T11:37:03.457Z,1.92
2023-01-18T11:39:32.006Z,1.10
2023-01-18T11:42:17.465Z,0.20
2023-01-18T11:44:58.974Z,0.20
2023-01-18T11:47:57.596Z,0.10
2023-01-18T11:50:46.073Z,1.10
2023-01-18T11:53:15.950Z,0.10
2023-01-18T11:55:48.051Z,4.75
2023-01-18T11:58:26.839Z,0.10
2023-01-18T12:01:21.992Z,0.20
2023-01-18T12:04:08.862Z,0.38
2023-01-18T12:07:03.637Z,0.55
2023-01-18T12:09:53.263Z,0.10
2023-01-18T12:12:20.637Z,0.10
2023-01-18T12:15:11.787Z,0.05
2023-01-18T12:18:12.881Z,0.20
2023-01-18T12:21:19.298Z,0.20
2023-01-18T12:24:11.709Z,0.10
2023-01-18T12:27:33.831Z,2.13
2023-01-18T12:30:18.869Z,0.32
2023-01-18T12:33:18.753Z,0.43
2023-01-18T12:36:11.571Z,0.20
2023-01-18T12:38:49.740Z,0.40
2023-01-18T12:41:49.935Z,1.45
2023-01-18T12:44:23.003Z,1.70
2023-01-18T12:46:59.779Z,1.00
2023-01-18T12:49:32.995Z,1.02
2023-01-18T12:52:18.102Z,0.50
2023-01-18T12:54:56.990Z,0.40
2023-01-18T12:57:26.733Z,0.43
2023-01-18T13:00:06.526Z,0.55
2023-01-18T13:02:46.779Z,2.13
2023-01-18T13:07:58.856Z,1.48
2023-01-18T13:10:30.493Z,15.13
2023-01-18T13:12:59.691Z,13.23
2023-01-18T13:15:46.687Z,8.43
2023-01-18T13:18:39.289Z,7.47
2023-01-18T13:21:35.432Z,10.48
2023-01-18T13:24:41.541Z,1.92
2023-01-18T13:27:15.980Z,4.95
2023-01-18T13:29:46.946Z,12.95
2023-01-18T13:32:55.662Z,24.00
2023-01-18T13:35:34.453Z,28.73
2023-01-18T13:38:13.770Z,44.67
2023-01-18T13:40:55.292Z,30.90
2023-01-18T13:43:48.972Z,45.17
2023-01-18T13:46:26.488Z,29.02
2023-01-18T13:48:56.879Z,26.75
2023-01-18T13:51:42.932Z,19.00
2023-01-18T13:54:15.459Z,16.10
2023-01-18T13:57:04.607Z,22.40
2023-01-18T13:59:37.770Z,25.08
2023-01-18T14:02:37.756Z,25.90
2023-01-18T14:05:20.457Z,22.27
2023-01-18T14:07:52.578Z,15.93
2023-01-18T14:10:23.417Z,12.32
2023-01-18T14:12:54.423Z,15.50
2023-01-18T14:15:40.084Z,27.35
2023-01-18T14:18:29.628Z,9.82
2023-01-18T14:21:07.905Z,18.85
2023-01-18T14:23:47.395Z,15.43
2023-01-18T14:26:17.693Z,7.20
2023-01-18T14:28:57.810Z,9.50
2023-01-18T14:31:35.834Z,9.10
2023-01-18T14:34:36.495Z,5.30
2023-01-18T14:37:05.868Z,6.63
2023-01-18T14:39:33.961Z,6.07
2023-01-18T14:42:05.660Z,9.25
2023-01-18T14:44:34.182Z,11.05
2023-01-18T14:47:13.853Z,12.27
2023-01-18T14:49:50.566Z,15.50
2023-01-18T14:52:19.406Z,9.90
2023-01-18T14:54:53.190Z,36.10
2023-01-18T14:57:22.698Z,13.50
2023-01-18T14:59:56.005Z,24.15
2023-01-18T15:02:29.763Z,11.77
2023-01-18T15:05:18.125Z,5.15
2023-01-18T15:07:58.644Z,11.38
2023-01-18T15:10:27.436Z,18.42
2023-01-18T15:12:59.207Z,18.10
2023-01-18T15:15:32.595Z,18.27
2023-01-18T15:18:13.376Z,13.00
2023-01-18T15:20:52.688Z,33.47
2023-01-18T15:23:20.190Z,27.15
2023-01-18T15:25:50.680Z,18.92
2023-01-18T15:28:23.936Z,21.60
2023-01-18T15:30:56.277Z,12.00
2023-01-18T15:33:26.430Z,7.60
2023-01-18T15:35:59.446Z,9.23
2023-01-18T15:38:26.781Z,12.43
2023-01-18T15:41:01.654Z,8.60
2023-01-18T15:43:36.256Z,9.57
2023-01-18T15:46:08.201Z,9.77
2023-01-18T15:48:47.534Z,6.97
2023-01-18T15:51:15.014Z,5.35
2023-01-18T15:53:53.622Z,7.53
2023-01-18T15:56:31.566Z,7.00
2023-01-18T15:59:01.623Z,5.40
2023-01-18T16:01:36.960Z,6.80
2023-01-18T16:04:23.718Z,4.15
2023-01-18T16:06:51.309Z,2.35
2023-01-18T16:09:22.327Z,3.33
2023-01-18T16:11:59.339Z,5.85
2023-01-18T16:14:32.072Z,13.45
2023-01-18T16:17:20.862Z,9.60
2023-01-18T16:19:54.568Z,8.23
2023-01-18T16:22:52.329Z,11.73
2023-01-18T16:25:23.764Z,32.70
2023-01-18T16:27:52.576Z,18.73
2023-01-18T16:30:29.511Z,17.33
2023-01-18T16:33:17.359Z,15.88
2023-01-18T16:35:45.891Z,22.05
2023-01-18T16:38:16.152Z,14.65
2023-01-18T16:40:47.081Z,30.90
2023-01-18T16:43:22.268Z,30.88
2023-01-18T16:45:51.786Z,24.05
2023-01-18T16:48:27.096Z,28.17
2023-01-18T16:50:56.459Z,36.30
2023-01-18T16:53:23.721Z,33.83
2023-01-18T16:55:51.175Z,100.90
2023-01-18T16:58:21.780Z,20.23
2023-01-18T17:00:54.869Z,32.60
2023-01-18T17:03:22.047Z,46.80
2023-01-18T17:05:49.159Z,22.17
2023-01-18T17:08:16.754Z,28.33
2023-01-18T17:10:49.627Z,21.70
2023-01-18T17:13:17.069Z,15.32
2023-01-18T17:15:45.743Z,16.55
2023-01-18T17:18:22.907Z,9.73
2023-01-18T17:20:50.287Z,8.93
2023-01-18T17:23:18.299Z,7.20
2023-01-18T17:25:45.854Z,5.05
2023-01-18T17:28:18.413Z,7.93
2023-01-18T17:30:48.629Z,7.47
2023-01-18T17:33:22.822Z,5.00
2023-01-18T17:35:51.017Z,5.90
2023-01-18T17:38:24.310Z,6.53
2023-01-18T17:40:52.298Z,4.18
2023-01-18T17:43:32.938Z,5.57
2023-01-18T17:46:06.292Z,3.90
2023-01-18T17:48:33.578Z,10.18
2023-01-18T17:51:00.784Z,5.05
2023-01-18T17:53:28.329Z,2.35
2023-01-18T17:55:55.560Z,4.50
2023-01-18T17:58:23.021Z,1.42
2023-01-18T18:00:50.065Z,3.75
2023-01-18T18:03:17.610Z,1.42
2023-01-18T18:05:45.607Z,3.50
2023-01-18T18:08:12.504Z,3.13
2023-01-18T18:10:43.641Z,1.85
2023-01-18T18:15:37.540Z,2.88
2023-01-18T18:18:07.405Z,3.42
2023-01-18T18:20:38.664Z,2.08
2023-01-18T18:23:07.675Z,2.70
2023-01-18T18:25:34.815Z,1.25
2023-01-18T18:28:01.799Z,1.48
2023-01-18T18:30:29.043Z,1.90
2023-01-18T18:32:56.047Z,1.35
2023-01-18T18:35:25.932Z,2.28
2023-01-18T18:37:54.507Z,0.67
2023-01-18T18:40:22.112Z,5.45
2023-01-18T18:43:01.322Z,11.52
2023-01-18T18:45:31.492Z,8.65
2023-01-18T18:47:59.082Z,12.77
2023-01-18T18:50:26.665Z,5.03
2023-01-18T18:52:54.240Z,5.30
2023-01-18T18:55:21.350Z,4.22
2023-01-18T18:57:48.407Z,5.95
2023-01-18T19:00:16.113Z,9.50
2023-01-18T19:02:43.343Z,21.92
2023-01-18T19:05:13.590Z,293.35
2023-01-18T19:07:42.829Z,182.88
2023-01-18T19:10:11.825Z,114.72
2023-01-18T19:12:38.944Z,45.65
2023-01-18T19:15:06.424Z,38.67
2023-01-18T19:17:34.601Z,74.18
2023-01-18T19:20:01.666Z,53.33
2023-01-18T19:22:28.759Z,67.15
2023-01-18T19:24:55.981Z,78.30
2023-01-18T19:27:27.919Z,54.95
2023-01-18T19:29:57.308Z,40.65
2023-01-18T19:32:25.427Z,40.33
2023-01-18T19:34:52.534Z,36.13
2023-01-18T19:37:20.658Z,42.75
2023-01-18T19:39:49.100Z,36.33
2023-01-18T19:42:16.448Z,26.80
2023-01-18T19:44:44.220Z,31.15
2023-01-18T19:47:12.740Z,23.65
2023-01-18T19:49:40.982Z,21.58
2023-01-18T19:52:09.627Z,14.85
2023-01-18T19:54:36.715Z,14.95
2023-01-18T19:57:04.735Z,12.18
2023-01-18T19:59:31.945Z,19.42
2023-01-18T20:01:59.569Z,13.57
2023-01-18T20:04:26.910Z,11.48
2023-01-18T20:06:54.043Z,14.55
2023-01-18T20:09:26.908Z,24.30
2023-01-18T20:12:00.119Z,16.20
2023-01-18T20:14:40.311Z,34.03
2023-01-18T20:17:09.893Z,51.95
2023-01-18T20:19:37.417Z,67.75
2023-01-18T20:22:04.614Z,59.05
2023-01-18T20:24:31.715Z,39.00
2023-01-18T20:27:14.909Z,47.33
2023-01-18T20:29:43.388Z,58.90
2023-01-18T20:32:16.633Z,46.55
2023-01-18T20:34:47.432Z,47.80
2023-01-18T20:37:19.241Z,50.92
2023-01-18T20:39:50.730Z,57.08
2023-01-18T20:42:18.485Z,55.47
2023-01-18T20:44:49.936Z,49.80
2023-01-18T20:47:17.156Z,63.58
2023-01-18T20:49:46.769Z,61.80
2023-01-18T20:52:15.805Z,70.18
2023-01-18T20:54:43.236Z,64.70
2023-01-18T20:57:11.130Z,61.85
2023-01-18T20:59:38.762Z,57.22
2023-01-18T21:02:07.111Z,58.90
2023-01-18T21:04:36.196Z,69.25
2023-01-18T21:07:07.529Z,58.28
2023-01-18T21:09:38.211Z,46.00
2023-01-18T21:12:06.392Z,41.17
2023-01-18T21:14:34.404Z,52.13
2023-01-18T21:17:02.908Z,43.40
2023-01-18T21:19:30.333Z,43.67
2023-01-18T21:22:00.480Z,51.03
2023-01-18T21:24:27.573Z,38.33
2023-01-18T21:26:54.682Z,55.15
2023-01-18T21:29:21.827Z,32.13
2023-01-18T21:31:50.590Z,38.30
2023-01-18T21:34:18.508Z,26.73
2023-01-18T21:36:45.875Z,29.13
2023-01-18T21:39:18.981Z,18.02
2023-01-18T21:42:07.309Z,25.10
2023-01-18T21:44:53.262Z,25.02
2023-01-18T21:47:20.467Z,25.05
2023-01-18T21:50:21.954Z,37.90
2023-01-18T21:55:39.553Z,13.82
2023-01-18T21:58:25.017Z,12.60
2023-01-18T22:00:54.304Z,16.70
2023-01-18T22:03:21.715Z,7.85
2023-01-18T22:05:49.845Z,13.85
2023-01-18T22:08:17.505Z,7.18
2023-01-18T22:10:47.857Z,8.60
2023-01-18T22:13:15.120Z,9.88
2023-01-18T22:15:42.142Z,9.10
2023-01-18T22:18:10.195Z,4.80
2023-01-18T22:20:38.022Z,2.60
2023-01-18T22:23:05.885Z,10.80
2023-01-18T22:25:33.269Z,5.63
2023-01-18T22:28:00.776Z,3.47
2023-01-18T22:30:30.133Z,3.92
2023-01-18T22:32:57.476Z,4.43
2023-01-18T22:35:24.770Z,3.80
2023-01-18T22:37:52.685Z,5.55
2023-01-18T22:40:20.036Z,3.05
2023-01-18T22:42:47.328Z,8.27
2023-01-18T22:45:14.504Z,3.47
2023-01-18T22:47:41.499Z,3.47
2023-01-18T22:50:09.508Z,2.97
2023-01-18T22:52:36.710Z,2.30
2023-01-18T22:55:04.110Z,3.35
2023-01-18T22:57:31.300Z,2.88
2023-01-18T22:59:58.218Z,2.50
2023-01-18T23:02:25.423Z,3.55
2023-01-18T23:04:52.583Z,1.73
2023-01-18T23:07:19.851Z,2.55
2023-01-18T23:09:46.911Z,1.10
2023-01-18T23:12:13.762Z,2.35
2023-01-18T23:14:59.183Z,1.73
2023-01-18T23:17:42.491Z,1.63
2023-01-18T23:20:11.937Z,3.92
2023-01-18T23:22:40.465Z,2.03
2023-01-18T23:25:07.797Z,0.95
2023-01-18T23:27:34.852Z,1.23
2023-01-18T23:30:02.978Z,1.17
2023-01-18T23:32:33.025Z,2.40
2023-01-18T23:35:00.668Z,1.05
2023-01-18T23:37:28.067Z,0.85
2023-01-18T23:40:13.391Z,1.50
2023-01-18T23:42:58.975Z,0.70
2023-01-18T23:45:44.488Z,1.75
2023-01-18T23:48:32.780Z,0.90
2023-01-18T23:51:18.410Z,0.93
2023-01-18T23:54:03.974Z,1.17
2023-01-18T23:56:31.433Z,1.00
2023-01-18T23:58:58.962Z,1.23
